createdAt,value
2024-02-02T00:02:21.850Z,14.25
2024-02-02T00:04:56.990Z,11.32
2024-02-02T00:07:30.897Z,10.05
2024-02-02T00:10:05.592Z,15.27
2024-02-02T00:12:39.513Z,14.10
2024-02-02T00:15:13.358Z,15.45
2024-02-02T00:17:47.792Z,14.13
2024-02-02T00:20:23.155Z,12.70
2024-02-02T00:22:57.649Z,13.40
2024-02-02T00:25:31.541Z,11.38
2024-02-02T00:28:05.843Z,9.88
2024-02-02T00:30:41.421Z,10.60
2024-02-02T00:33:15.566Z,12.75
2024-02-02T00:35:50.996Z,14.68
2024-02-02T00:38:24.913Z,14.60
2024-02-02T00:40:58.698Z,15.52
2024-02-02T00:43:32.490Z,13.73
2024-02-02T00:46:06.540Z,12.75
2024-02-02T00:48:40.474Z,13.93
2024-02-02T00:51:15.767Z,13.68
2024-02-02T00:53:49.663Z,13.70
2024-02-02T00:56:25.386Z,15.38
2024-02-02T00:58:59.326Z,14.45
2024-02-02T01:01:33.280Z,14.27
2024-02-02T01:04:07.140Z,13.40
2024-02-02T01:06:42.487Z,11.27
2024-02-02T01:09:16.990Z,9.38
2024-02-02T01:11:54.491Z,11.00
2024-02-02T01:14:28.472Z,10.00
2024-02-02T01:17:02.559Z,11.35
2024-02-02T01:19:37.518Z,26.65
2024-02-02T01:22:12.690Z,23.73
2024-02-02T01:24:46.430Z,13.18
2024-02-02T01:27:20.260Z,10.07
2024-02-02T01:29:54.071Z,18.52
2024-02-02T01:32:27.956Z,7.55
2024-02-02T01:35:01.956Z,4.88
2024-02-02T01:37:37.145Z,3.72
2024-02-02T01:40:11.267Z,5.82
2024-02-02T01:42:45.105Z,4.25
2024-02-02T01:45:19.035Z,4.43
2024-02-02T01:47:52.889Z,5.68
2024-02-02T01:50:26.748Z,7.47
2024-02-02T01:53:02.289Z,8.55
2024-02-02T01:55:36.279Z,6.63
2024-02-02T01:58:10.691Z,6.30
2024-02-02T02:00:44.534Z,8.02
2024-02-02T02:03:18.890Z,9.55
2024-02-02T02:05:52.824Z,9.77
2024-02-02T02:08:28.238Z,9.43
2024-02-02T02:11:02.036Z,15.25
2024-02-02T02:13:36.393Z,6.30
2024-02-02T02:16:10.470Z,4.55
2024-02-02T02:18:52.643Z,4.68
2024-02-02T02:21:32.057Z,5.45
2024-02-02T02:24:06.592Z,4.60
2024-02-02T02:26:41.458Z,5.43
2024-02-02T02:29:15.340Z,7.80
2024-02-02T02:31:54.825Z,5.40
2024-02-02T02:34:29.632Z,5.30
2024-02-02T02:37:05.496Z,8.60
2024-02-02T02:39:39.295Z,7.80
2024-02-02T02:42:13.259Z,7.57
2024-02-02T02:44:47.187Z,6.32
2024-02-02T02:47:21.412Z,6.78
2024-02-02T02:49:55.160Z,6.40
2024-02-02T02:52:30.296Z,7.65
2024-02-02T02:55:04.792Z,7.68
2024-02-02T02:57:38.659Z,8.82
2024-02-02T03:00:14.101Z,8.23
2024-02-02T03:02:48.043Z,6.75
2024-02-02T03:05:21.859Z,6.10
2024-02-02T03:07:57.303Z,5.68
2024-02-02T03:10:31.447Z,7.47
2024-02-02T03:13:05.539Z,7.07
2024-02-02T03:15:41.213Z,6.72
2024-02-02T03:18:15.726Z,4.88
2024-02-02T03:20:49.706Z,6.65
2024-02-02T03:23:24.835Z,6.00
2024-02-02T03:25:58.600Z,5.45
2024-02-02T03:28:32.688Z,6.75
2024-02-02T03:31:08.332Z,8.57
2024-02-02T03:33:42.173Z,5.43
2024-02-02T03:36:16.087Z,4.32
2024-02-02T03:38:51.678Z,5.45
2024-02-02T03:41:25.480Z,4.03
2024-02-02T03:43:59.241Z,3.88
2024-02-02T03:46:32.993Z,4.05
2024-02-02T03:49:06.973Z,4.80
2024-02-02T03:51:40.839Z,4.53
2024-02-02T03:54:16.156Z,5.68
2024-02-02T03:56:49.972Z,4.55
2024-02-02T03:59:23.805Z,5.13
2024-02-02T04:01:57.580Z,7.57
2024-02-02T04:04:32.821Z,6.97
2024-02-02T04:07:06.573Z,6.38
2024-02-02T04:09:41.885Z,5.78
2024-02-02T04:12:15.814Z,9.95
2024-02-02T04:14:49.776Z,8.45
2024-02-02T04:17:23.616Z,9.20
2024-02-02T04:19:57.445Z,7.88
2024-02-02T04:22:31.244Z,8.82
2024-02-02T04:25:07.341Z,6.68
2024-02-02T04:27:41.372Z,6.82
2024-02-02T04:30:15.757Z,5.75
2024-02-02T04:32:49.658Z,5.22
2024-02-02T04:35:24.534Z,6.05
2024-02-02T04:38:00.150Z,8.82
2024-02-02T04:40:36.041Z,7.00
2024-02-02T04:43:09.854Z,6.60
2024-02-02T04:45:44.591Z,5.90
2024-02-02T04:48:18.542Z,6.97
2024-02-02T04:50:52.420Z,6.97
2024-02-02T04:53:26.206Z,6.78
2024-02-02T04:56:01.829Z,6.95
2024-02-02T04:58:35.592Z,6.90
2024-02-02T05:01:09.532Z,6.13
2024-02-02T05:03:43.457Z,6.65
2024-02-02T05:06:18.158Z,6.20
2024-02-02T05:08:52.302Z,5.20
2024-02-02T05:14:20.586Z,6.43
2024-02-02T05:16:54.723Z,7.30
2024-02-02T05:19:28.575Z,9.75
2024-02-02T05:22:03.088Z,9.15
2024-02-02T05:24:45.071Z,9.90
2024-02-02T05:27:19.823Z,9.98
2024-02-02T05:29:55.116Z,7.20
2024-02-02T05:32:28.891Z,6.75
2024-02-02T05:35:03.057Z,6.47
2024-02-02T05:37:37.800Z,6.68
2024-02-02T05:40:11.796Z,6.72
2024-02-02T05:42:46.858Z,6.35
2024-02-02T05:45:22.055Z,5.90
2024-02-02T05:47:55.976Z,6.20
2024-02-02T05:50:29.934Z,7.35
2024-02-02T05:53:03.820Z,8.23
2024-02-02T05:55:37.639Z,8.27
2024-02-02T05:58:11.434Z,6.38
2024-02-02T06:00:47.158Z,6.00
2024-02-02T06:03:21.841Z,14.70
2024-02-02T06:05:55.768Z,10.45
2024-02-02T06:08:29.686Z,7.03
2024-02-02T06:11:04.976Z,7.25
2024-02-02T06:13:38.729Z,5.88
2024-02-02T06:16:13.843Z,5.38
2024-02-02T06:18:47.725Z,6.47
2024-02-02T06:21:21.590Z,6.80
2024-02-02T06:23:55.409Z,9.82
2024-02-02T06:26:29.203Z,10.20
2024-02-02T06:29:03.505Z,9.35
2024-02-02T06:31:38.763Z,14.40
2024-02-02T06:34:12.866Z,23.73
2024-02-02T06:36:46.976Z,6.50
2024-02-02T06:39:21.183Z,7.40
2024-02-02T06:41:55.104Z,8.85
2024-02-02T06:44:28.903Z,6.90
2024-02-02T06:47:04.074Z,11.95
2024-02-02T06:49:37.984Z,12.65
2024-02-02T06:52:12.262Z,13.18
2024-02-02T06:54:46.522Z,6.97
2024-02-02T06:57:20.709Z,12.35
2024-02-02T06:59:56.455Z,7.85
2024-02-02T07:02:33.884Z,10.15
2024-02-02T07:05:08.633Z,8.38
2024-02-02T07:07:42.590Z,6.13
2024-02-02T07:10:19.318Z,6.20
2024-02-02T07:12:59.662Z,6.35
2024-02-02T07:15:38.035Z,4.15
2024-02-02T07:18:29.713Z,3.42
2024-02-02T07:21:08.225Z,4.50
2024-02-02T07:23:42.788Z,7.13
2024-02-02T07:26:27.730Z,5.38
2024-02-02T07:29:07.338Z,6.47
2024-02-02T07:31:44.605Z,6.90
2024-02-02T07:34:41.413Z,5.72
2024-02-02T07:37:31.381Z,5.78
2024-02-02T07:40:26.188Z,7.95
2024-02-02T07:43:00.065Z,6.18
2024-02-02T07:45:34.738Z,6.07
2024-02-02T07:48:09.118Z,6.38
2024-02-02T07:50:44.311Z,6.75
2024-02-02T07:53:18.125Z,6.70
2024-02-02T07:55:52.177Z,6.30
2024-02-02T07:58:25.932Z,6.72
2024-02-02T08:01:00.335Z,5.55
2024-02-02T08:03:34.685Z,5.25
2024-02-02T08:06:10.920Z,7.53
2024-02-02T08:08:44.866Z,6.93
2024-02-02T08:11:19.000Z,5.95
2024-02-02T08:13:52.857Z,5.93
2024-02-02T08:16:26.604Z,6.53
2024-02-02T08:19:00.716Z,6.45
2024-02-02T08:21:36.044Z,7.68
2024-02-02T08:24:10.184Z,6.75
2024-02-02T08:26:43.987Z,13.18
2024-02-02T08:29:18.163Z,6.68
2024-02-02T08:31:52.131Z,5.38
2024-02-02T08:34:26.999Z,6.18
2024-02-02T08:37:03.429Z,8.65
2024-02-02T08:39:38.024Z,5.55
2024-02-02T08:42:18.918Z,6.10
2024-02-02T08:44:53.662Z,9.93
2024-02-02T08:47:31.684Z,6.82
2024-02-02T08:50:06.081Z,5.15
2024-02-02T08:52:44.281Z,3.67
2024-02-02T08:55:43.098Z,8.10
2024-02-02T08:58:23.150Z,6.53
2024-02-02T09:00:57.413Z,4.53
2024-02-02T09:03:45.197Z,3.92
2024-02-02T09:06:43.608Z,4.32
2024-02-02T09:09:21.221Z,5.07
2024-02-02T09:11:55.095Z,5.45
2024-02-02T09:14:29.758Z,4.07
2024-02-02T09:17:03.647Z,5.50
2024-02-02T09:19:42.718Z,5.68
2024-02-02T09:22:18.398Z,3.33
2024-02-02T09:24:55.135Z,4.28
2024-02-02T09:27:34.361Z,5.20
2024-02-02T09:30:12.835Z,4.32
2024-02-02T09:32:47.079Z,5.13
2024-02-02T09:35:51.114Z,3.83
2024-02-02T09:38:25.557Z,3.42
2024-02-02T09:41:22.754Z,6.05
2024-02-02T09:44:10.135Z,6.50
2024-02-02T09:46:52.283Z,5.07
2024-02-02T09:49:35.714Z,4.50
2024-02-02T09:52:21.150Z,4.38
2024-02-02T09:55:03.520Z,4.82
2024-02-02T09:57:50.877Z,6.22
2024-02-02T10:00:34.254Z,5.45
2024-02-02T10:03:19.466Z,4.55
2024-02-02T10:06:07.747Z,4.07
2024-02-02T10:08:59.057Z,3.97
2024-02-02T10:11:56.593Z,7.60
2024-02-02T10:14:56.604Z,5.68
2024-02-02T10:17:42.413Z,5.00
2024-02-02T10:20:26.228Z,16.02
2024-02-02T10:23:32.438Z,8.68
2024-02-02T10:26:29.769Z,4.32
2024-02-02T10:29:14.490Z,3.90
2024-02-02T10:32:10.865Z,3.75
2024-02-02T10:34:57.183Z,4.55
2024-02-02T10:37:36.436Z,4.97
2024-02-02T10:40:22.688Z,4.15
2024-02-02T10:43:15.517Z,6.82
2024-02-02T10:46:02.090Z,7.53
2024-02-02T10:48:58.682Z,3.45
2024-02-02T10:51:41.786Z,10.43
2024-02-02T10:54:25.923Z,5.88
2024-02-02T10:57:15.517Z,6.47
2024-02-02T11:00:08.350Z,6.25
2024-02-02T11:02:58.367Z,4.57
2024-02-02T11:05:41.735Z,3.80
2024-02-02T11:08:18.064Z,3.55
2024-02-02T11:11:01.732Z,3.60
2024-02-02T11:13:44.724Z,3.25
2024-02-02T11:16:33.044Z,3.70
2024-02-02T11:19:19.027Z,4.38
2024-02-02T11:22:14.035Z,15.27
2024-02-02T11:24:59.737Z,5.40
2024-02-02T11:27:43.083Z,5.07
2024-02-02T11:30:33.134Z,4.18
2024-02-02T11:33:29.419Z,4.93
2024-02-02T11:36:19.194Z,4.78
2024-02-02T11:41:40.334Z,5.07
2024-02-02T11:44:16.357Z,5.15
2024-02-02T11:46:52.103Z,10.80
2024-02-02T11:49:31.441Z,5.53
2024-02-02T11:52:07.418Z,4.75
2024-02-02T11:54:47.357Z,4.00
2024-02-02T11:57:23.921Z,4.63
2024-02-02T11:59:58.932Z,4.78
2024-02-02T12:02:47.824Z,4.63
2024-02-02T12:05:26.889Z,5.68
2024-02-02T12:08:06.916Z,6.53
2024-02-02T12:10:43.911Z,6.72
2024-02-02T12:13:24.453Z,4.60
2024-02-02T12:15:58.673Z,5.28
2024-02-02T12:18:33.132Z,5.68
2024-02-02T12:21:16.529Z,5.03
2024-02-02T12:23:50.490Z,7.20
2024-02-02T12:26:25.980Z,6.25
2024-02-02T12:28:59.832Z,7.32
2024-02-02T12:31:33.633Z,5.72
2024-02-02T12:34:08.012Z,6.18
2024-02-02T12:36:41.957Z,7.22
2024-02-02T12:39:15.903Z,6.78
2024-02-02T12:41:51.699Z,5.40
2024-02-02T12:44:27.316Z,5.32
2024-02-02T12:47:05.513Z,5.32
2024-02-02T12:49:39.677Z,4.80
2024-02-02T12:52:13.550Z,4.38
2024-02-02T12:54:47.540Z,4.50
2024-02-02T12:57:22.750Z,4.45
2024-02-02T12:59:56.714Z,5.40
2024-02-02T13:02:30.556Z,4.90
2024-02-02T13:05:11.408Z,16.00
2024-02-02T13:07:49.210Z,12.95
2024-02-02T13:10:37.028Z,11.90
2024-02-02T13:13:21.897Z,7.88
2024-02-02T13:15:55.912Z,5.32
2024-02-02T13:18:32.046Z,5.75
2024-02-02T13:21:24.056Z,4.82
2024-02-02T13:24:00.126Z,6.40
2024-02-02T13:26:40.647Z,5.97
2024-02-02T13:29:26.867Z,5.97
2024-02-02T13:32:04.197Z,11.10
2024-02-02T13:34:38.638Z,5.13
2024-02-02T13:37:26.064Z,6.00
2024-02-02T13:40:03.769Z,18.50
2024-02-02T13:42:38.597Z,10.55
2024-02-02T13:45:16.621Z,7.00
2024-02-02T13:47:57.131Z,10.40
2024-02-02T13:50:41.641Z,5.90
2024-02-02T13:53:16.025Z,10.68
2024-02-02T13:55:50.035Z,6.05
2024-02-02T13:58:24.343Z,10.60
2024-02-02T14:00:59.703Z,7.80
2024-02-02T14:03:34.248Z,8.48
2024-02-02T14:06:08.485Z,9.50
2024-02-02T14:08:43.008Z,6.88
2024-02-02T14:11:23.486Z,9.30
2024-02-02T14:13:58.470Z,9.98
2024-02-02T14:16:34.066Z,7.28
2024-02-02T14:19:10.310Z,5.78
2024-02-02T14:21:44.233Z,6.50
2024-02-02T14:24:18.423Z,5.43
2024-02-02T14:26:53.358Z,5.97
2024-02-02T14:29:27.817Z,6.45
2024-02-02T14:32:02.947Z,6.43
2024-02-02T14:34:37.213Z,5.78
2024-02-02T14:37:12.403Z,6.47
2024-02-02T14:39:46.262Z,5.47
2024-02-02T14:42:20.380Z,7.97
2024-02-02T14:44:55.456Z,8.85
2024-02-02T14:47:33.297Z,6.13
2024-02-02T14:50:10.278Z,6.22
2024-02-02T14:52:44.034Z,6.20
2024-02-02T14:55:17.782Z,7.60
2024-02-02T14:57:52.106Z,6.55
2024-02-02T15:00:31.789Z,5.97
2024-02-02T15:03:07.387Z,5.00
2024-02-02T15:05:42.044Z,6.25
2024-02-02T15:08:15.894Z,19.50
2024-02-02T15:10:50.524Z,6.38
2024-02-02T15:13:24.317Z,4.43
2024-02-02T15:15:58.062Z,4.78
2024-02-02T15:18:33.371Z,7.43
2024-02-02T15:21:07.198Z,7.05
2024-02-02T15:23:40.979Z,6.15
2024-02-02T15:26:15.638Z,10.13
2024-02-02T15:28:49.437Z,17.15
2024-02-02T15:31:23.866Z,16.98
2024-02-02T15:33:59.539Z,31.55
2024-02-02T15:36:34.412Z,13.65
2024-02-02T15:39:19.542Z,5.65
2024-02-02T15:42:01.029Z,8.93
2024-02-02T15:44:34.814Z,13.10
2024-02-02T15:47:08.666Z,9.85
2024-02-02T15:49:44.073Z,9.60
2024-02-02T15:52:18.024Z,20.60
2024-02-02T15:54:54.141Z,9.30
2024-02-02T15:57:28.064Z,5.03
2024-02-02T16:00:04.775Z,7.43
2024-02-02T16:02:39.097Z,12.05
2024-02-02T16:05:18.562Z,7.97
2024-02-02T16:07:52.521Z,27.58
2024-02-02T16:10:26.633Z,11.50
2024-02-02T16:13:01.935Z,10.20
2024-02-02T16:15:35.786Z,9.55
2024-02-02T16:18:09.991Z,11.35
2024-02-02T16:20:45.258Z,11.82
2024-02-02T16:23:19.098Z,13.00
2024-02-02T16:25:52.959Z,22.85
2024-02-02T16:28:26.805Z,28.55
2024-02-02T16:31:00.665Z,8.43
2024-02-02T16:33:34.632Z,11.82
2024-02-02T16:36:10.183Z,32.78
2024-02-02T16:38:45.816Z,5.53
2024-02-02T16:41:19.787Z,5.63
2024-02-02T16:43:54.157Z,23.80
2024-02-02T16:46:27.976Z,26.60
2024-02-02T16:49:01.870Z,7.20
2024-02-02T16:51:38.118Z,4.80
2024-02-02T16:54:12.165Z,5.07
2024-02-02T16:56:46.068Z,5.03
2024-02-02T16:59:19.922Z,5.95
2024-02-02T17:01:53.793Z,7.32
2024-02-02T17:04:27.793Z,5.07
2024-02-02T17:07:03.257Z,4.45
2024-02-02T17:09:39.658Z,5.35
2024-02-02T17:12:15.942Z,5.50
2024-02-02T17:14:49.939Z,4.97
2024-02-02T17:17:23.743Z,5.47
2024-02-02T17:19:57.610Z,5.07
2024-02-02T17:22:32.848Z,6.78
2024-02-02T17:25:07.593Z,6.00
2024-02-02T17:27:42.427Z,5.28
2024-02-02T17:30:18.092Z,7.50
2024-02-02T17:32:52.208Z,7.15
2024-02-02T17:35:34.177Z,5.20
2024-02-02T17:38:16.572Z,5.13
2024-02-02T17:40:50.727Z,5.15
2024-02-02T17:43:24.682Z,4.53
2024-02-02T17:45:58.707Z,5.50
2024-02-02T17:48:32.755Z,17.20
2024-02-02T17:51:07.833Z,11.07
2024-02-02T17:53:43.359Z,9.18
2024-02-02T17:56:18.390Z,13.18
2024-02-02T17:58:56.523Z,12.85
2024-02-02T18:01:30.748Z,13.30
2024-02-02T18:04:04.922Z,13.57
2024-02-02T18:06:38.888Z,13.25
2024-02-02T18:09:14.629Z,10.88
2024-02-02T18:11:48.511Z,13.75
2024-02-02T18:14:24.762Z,9.40
2024-02-02T18:16:58.692Z,8.45
2024-02-02T18:19:33.057Z,9.35
2024-02-02T18:22:06.953Z,10.55
2024-02-02T18:24:42.624Z,10.95
2024-02-02T18:27:16.479Z,9.80
2024-02-02T18:29:53.046Z,9.13
2024-02-02T18:32:26.975Z,11.25
2024-02-02T18:35:00.895Z,12.25
2024-02-02T18:37:34.813Z,13.75
2024-02-02T18:40:11.365Z,20.80
2024-02-02T18:42:45.228Z,8.80
2024-02-02T18:45:20.663Z,12.02
2024-02-02T18:47:54.637Z,15.77
2024-02-02T18:50:28.500Z,14.43
2024-02-02T18:53:02.424Z,15.93
2024-02-02T18:55:37.651Z,12.80
2024-02-02T18:58:11.689Z,11.40
2024-02-02T19:00:45.619Z,13.95
2024-02-02T19:03:19.636Z,12.45
2024-02-02T19:05:54.448Z,12.45
2024-02-02T19:08:28.393Z,11.70
2024-02-02T19:11:05.383Z,11.95
2024-02-02T19:13:39.191Z,16.30
2024-02-02T19:16:19.925Z,15.85
2024-02-02T19:18:54.120Z,13.43
2024-02-02T19:21:31.762Z,14.32
2024-02-02T19:24:07.860Z,10.27
2024-02-02T19:26:44.428Z,9.18
2024-02-02T19:29:18.284Z,9.70
2024-02-02T19:31:53.476Z,14.93
2024-02-02T19:34:27.456Z,13.20
2024-02-02T19:37:02.450Z,11.00
2024-02-02T19:39:36.412Z,9.68
2024-02-02T19:42:11.707Z,7.03
2024-02-02T19:44:45.684Z,12.00
2024-02-02T19:47:20.180Z,10.48
2024-02-02T19:49:54.112Z,9.60
2024-02-02T19:52:28.020Z,11.50
2024-02-02T19:55:04.091Z,9.88
2024-02-02T19:57:41.302Z,10.90
2024-02-02T20:00:16.938Z,5.93
2024-02-02T20:02:51.335Z,9.20
2024-02-02T20:05:28.779Z,11.73
2024-02-02T20:08:03.238Z,5.43
2024-02-02T20:10:37.080Z,6.65
2024-02-02T20:13:12.278Z,5.25
2024-02-02T20:15:46.163Z,5.93
2024-02-02T20:18:20.253Z,4.20
2024-02-02T20:20:55.146Z,7.20
2024-02-02T20:23:28.995Z,8.25
2024-02-02T20:26:05.070Z,8.63
2024-02-02T20:28:40.413Z,8.75
2024-02-02T20:33:57.888Z,9.75
2024-02-02T20:36:33.218Z,5.20
2024-02-02T20:39:09.067Z,4.97
2024-02-02T20:41:42.860Z,5.85
2024-02-02T20:44:17.929Z,7.55
2024-02-02T20:46:51.571Z,9.40
2024-02-02T20:49:25.741Z,9.73
2024-02-02T20:51:59.579Z,9.50
2024-02-02T20:54:33.460Z,6.95
2024-02-02T20:57:07.191Z,7.72
2024-02-02T20:59:43.584Z,9.15
2024-02-02T21:02:17.261Z,10.75
2024-02-02T21:04:52.042Z,12.07
2024-02-02T21:07:25.889Z,9.38
2024-02-02T21:09:59.738Z,14.13
2024-02-02T21:12:33.464Z,8.25
2024-02-02T21:15:09.362Z,7.18
2024-02-02T21:17:46.169Z,9.38
2024-02-02T21:20:23.196Z,10.25
2024-02-02T21:22:56.864Z,21.02
2024-02-02T21:25:30.566Z,14.75
2024-02-02T21:28:04.968Z,25.10
2024-02-02T21:30:40.535Z,26.85
2024-02-02T21:33:16.072Z,26.52
2024-02-02T21:35:51.324Z,24.58
2024-02-02T21:38:25.256Z,19.80
2024-02-02T21:40:58.946Z,18.50
2024-02-02T21:43:32.696Z,13.07
2024-02-02T21:46:08.106Z,11.82
2024-02-02T21:48:41.889Z,12.00
2024-02-02T21:51:15.970Z,14.50
2024-02-02T21:53:49.666Z,15.05
2024-02-02T21:56:23.922Z,13.82
2024-02-02T21:58:58.655Z,17.75
2024-02-02T22:01:37.304Z,14.52
2024-02-02T22:04:13.069Z,15.30
2024-02-02T22:06:47.328Z,8.82
2024-02-02T22:09:21.176Z,8.30
2024-02-02T22:11:54.965Z,8.23
2024-02-02T22:14:29.237Z,21.65
2024-02-02T22:17:05.072Z,29.73
2024-02-02T22:19:39.197Z,16.58
2024-02-02T22:22:12.912Z,12.73
2024-02-02T22:24:46.584Z,12.63
2024-02-02T22:27:23.664Z,11.48
2024-02-02T22:29:57.786Z,11.25
2024-02-02T22:32:32.810Z,10.07
2024-02-02T22:35:06.833Z,12.13
2024-02-02T22:37:44.970Z,10.07
2024-02-02T22:40:18.785Z,10.57
2024-02-02T22:42:52.464Z,9.73
2024-02-02T22:45:26.315Z,12.88
2024-02-02T22:48:01.477Z,14.15
2024-02-02T22:50:35.739Z,13.13
2024-02-02T22:53:09.553Z,16.63
2024-02-02T22:55:43.235Z,19.00
2024-02-02T22:58:17.176Z,17.30
2024-02-02T23:00:51.021Z,12.68
2024-02-02T23:03:28.081Z,18.52
2024-02-02T23:06:03.017Z,22.63
2024-02-02T23:08:36.813Z,16.52
2024-02-02T23:11:10.483Z,11.75
2024-02-02T23:13:44.172Z,10.70
2024-02-02T23:16:18.371Z,9.15
2024-02-02T23:18:53.621Z,18.20
2024-02-02T23:21:27.377Z,13.18
2024-02-02T23:24:01.087Z,8.32
2024-02-02T23:26:34.778Z,8.85
2024-02-02T23:29:08.607Z,9.38
2024-02-02T23:31:42.349Z,8.52
2024-02-02T23:34:17.531Z,8.45
2024-02-02T23:36:52.242Z,6.30
2024-02-02T23:39:25.962Z,5.22
2024-02-02T23:41:59.645Z,6.07
2024-02-02T23:44:33.785Z,6.55
2024-02-02T23:47:08.001Z,7.00
2024-02-02T23:49:43.148Z,6.53
2024-02-02T23:52:17.057Z,5.35
2024-02-02T23:54:50.892Z,6.15
2024-02-02T23:57:25.957Z,5.15
2024-02-02T23:59:59.773Z,5.05
